Time;durP1;ratioP1;P1;durP2;ratioP2;P2;SDS_P1;SDS_P2;PMS_P1;PMS_P2;Temp;Humidity;BMP_temperature;BMP_pressure;BME280_temperature;BME280_humidity;BME280_pressure;Samples;Min_cycle;Max_cycle;Signal;HPM_P1;HPM_P2
2022/03/14 00:01:21;;;;;;;12.80;5.72;;;8.40;78.90;;;;;;5027245;28;20497;-74
2022/03/14 00:03:58;;;;;;;14.57;6.15;;;8.30;79.30;;;;;;5015666;28;20022;-74
2022/03/14 00:06:24;;;;;;;17.88;6.72;;;8.30;79.40;;;;;;5014149;28;20485;-74
2022/03/14 00:08:52;;;;;;;21.70;6.57;;;8.30;79.60;;;;;;5024780;28;20029;-74
2022/03/14 00:11:18;;;;;;;13.98;4.97;;;8.30;79.70;;;;;;5022378;28;20071;-74
2022/03/14 00:13:46;;;;;;;14.30;5.05;;;8.40;79.30;;;;;;5035417;28;20068;-74
2022/03/14 00:16:24;;;;;;;15.35;7.00;;;8.40;79.30;;;;;;5035307;28;20044;-74
2022/03/14 00:18:55;;;;;;;23.70;7.97;;;8.40;79.40;;;;;;5035439;28;20100;-74
2022/03/14 00:21:25;;;;;;;17.00;8.07;;;8.40;79.50;;;;;;5034878;28;20571;-74
2022/03/14 00:23:56;;;;;;;15.43;7.18;;;8.50;79.50;;;;;;5034942;28;20029;-74
2022/03/14 00:26:22;;;;;;;14.07;6.80;;;8.50;79.40;;;;;;5033467;28;20025;-74
2022/03/14 00:28:48;;;;;;;19.20;5.68;;;8.50;79.50;;;;;;5034979;28;20155;-74
2022/03/14 00:31:14;;;;;;;10.80;5.35;;;8.50;79.60;;;;;;5035279;28;20484;-74
2022/03/14 00:33:41;;;;;;;14.52;4.82;;;8.50;79.70;;;;;;5034976;28;20048;-74
2022/03/14 00:36:08;;;;;;;19.98;5.07;;;8.40;79.90;;;;;;5035124;28;20100;-74
2022/03/14 00:38:38;;;;;;;11.85;4.30;;;8.50;80.00;;;;;;5029803;28;20053;-74
2022/03/14 00:41:05;;;;;;;14.23;4.00;;;8.50;79.80;;;;;;5013797;28;20026;-74
2022/03/14 00:43:32;;;;;;;14.57;5.53;;;8.60;80.00;;;;;;5031095;28;20064;-74
2022/03/14 00:45:57;;;;;;;11.13;4.40;;;8.50;79.90;;;;;;5033549;28;20543;-74
2022/03/14 00:48:24;;;;;;;11.10;4.38;;;8.60;79.80;;;;;;5034452;28;20041;-74
2022/03/14 00:50:50;;;;;;;10.15;3.85;;;8.60;80.00;;;;;;5034832;28;20017;-74
2022/03/14 00:53:16;;;;;;;15.32;3.95;;;8.60;80.00;;;;;;5034353;28;20021;-74
2022/03/14 00:55:42;;;;;;;10.35;3.80;;;8.70;80.00;;;;;;5034823;28;20063;-74
2022/03/14 00:58:07;;;;;;;11.05;3.85;;;8.70;79.60;;;;;;5033534;28;20084;-74
2022/03/14 01:00:33;;;;;;;19.88;7.97;;;8.70;79.70;;;;;;5032116;28;20052;-74
2022/03/14 01:03:00;;;;;;;20.52;6.25;;;8.70;79.80;;;;;;5034403;28;20045;-74
2022/03/14 01:05:27;;;;;;;21.35;5.53;;;8.70;79.90;;;;;;5034831;28;20084;-74
2022/03/14 01:07:52;;;;;;;13.48;3.95;;;8.70;80.00;;;;;;5035088;28;20388;-74
2022/03/14 01:10:18;;;;;;;13.50;4.05;;;8.70;79.90;;;;;;5034247;28;20101;-74
2022/03/14 01:12:44;;;;;;;11.40;4.28;;;8.70;79.90;;;;;;5034786;28;20033;-74
2022/03/14 01:15:10;;;;;;;13.65;4.35;;;8.80;79.80;;;;;;5032806;28;20080;-74
2022/03/14 01:17:36;;;;;;;12.40;4.18;;;8.80;79.70;;;;;;5037185;28;20459;-74
2022/03/14 01:20:04;;;;;;;12.57;4.20;;;8.70;80.10;;;;;;5037451;28;20454;-74
2022/03/14 01:22:30;;;;;;;11.07;3.72;;;8.70;80.10;;;;;;5038538;28;20519;-74
2022/03/14 01:24:56;;;;;;;12.13;4.18;;;8.80;80.10;;;;;;5038352;28;20104;-74
2022/03/14 01:27:21;;;;;;;11.85;3.92;;;8.80;80.10;;;;;;5038581;28;20041;-74
2022/03/14 01:29:47;;;;;;;10.23;3.55;;;8.80;80.20;;;;;;5036371;28;20024;-74
2022/03/14 01:32:13;;;;;;;12.25;4.18;;;8.70;80.40;;;;;;5038437;28;20026;-74
2022/03/14 01:34:39;;;;;;;14.32;4.63;;;8.80;80.30;;;;;;5038069;28;20072;-74
2022/03/14 01:37:04;;;;;;;13.45;3.80;;;8.80;80.30;;;;;;5037974;28;20077;-74
2022/03/14 01:39:31;;;;;;;11.02;4.65;;;8.80;80.40;;;;;;5037599;28;20445;-74
2022/03/14 01:41:57;;;;;;;13.55;4.38;;;8.80;80.30;;;;;;5038146;28;20045;-74
2022/03/14 01:44:23;;;;;;;15.73;4.55;;;8.90;80.00;;;;;;5038145;28;20018;-74
2022/03/14 01:46:49;;;;;;;10.55;4.05;;;9.00;79.80;;;;;;5037362;28;20036;-74
2022/03/14 01:49:15;;;;;;;13.25;4.97;;;9.00;79.90;;;;;;5036887;28;20071;-74
2022/03/14 01:51:43;;;;;;;9.38;3.58;;;9.00;79.80;;;;;;5038083;28;20021;-74
2022/03/14 01:54:09;;;;;;;14.48;3.83;;;9.00;79.90;;;;;;5036652;28;20520;-74
2022/03/14 01:56:35;;;;;;;15.10;4.38;;;8.90;80.30;;;;;;5036984;28;20025;-74
2022/03/14 01:59:01;;;;;;;11.43;4.25;;;8.90;80.30;;;;;;5037850;28;20542;-74
2022/03/14 02:01:27;;;;;;;10.45;3.88;;;9.00;79.90;;;;;;5036528;28;20036;-74
2022/03/14 02:03:53;;;;;;;17.20;4.45;;;9.10;79.60;;;;;;5036566;28;20025;-74
2022/03/14 02:06:19;;;;;;;18.02;4.63;;;9.20;79.60;;;;;;5032593;28;20116;-74
2022/03/14 02:08:45;;;;;;;10.10;3.92;;;9.20;79.40;;;;;;5026302;28;20035;-74
2022/03/14 02:11:12;;;;;;;12.15;4.22;;;9.20;79.00;;;;;;5037658;28;20022;-74
2022/03/14 02:13:37;;;;;;;9.85;3.78;;;9.20;78.70;;;;;;5034848;28;20021;-74
2022/03/14 02:16:03;;;;;;;10.60;4.05;;;9.20;78.70;;;;;;5037508;28;20041;-74
2022/03/14 02:18:29;;;;;;;9.50;4.38;;;9.20;78.70;;;;;;5036296;28;20078;-74
2022/03/14 02:20:56;;;;;;;9.77;3.33;;;9.30;78.70;;;;;;5035315;28;20093;-74
2022/03/14 02:23:22;;;;;;;19.55;3.70;;;9.20;78.80;;;;;;5037440;28;20025;-74
2022/03/14 02:25:47;;;;;;;9.35;3.42;;;9.20;78.90;;;;;;5037081;28;20033;-74
2022/03/14 02:28:14;;;;;;;12.15;4.07;;;9.30;78.60;;;;;;5035075;28;20452;-74
2022/03/14 02:30:41;;;;;;;15.48;4.07;;;9.30;78.60;;;;;;5037381;28;20056;-73
2022/03/14 02:33:08;;;;;;;9.82;3.88;;;9.30;78.50;;;;;;5036763;28;20079;-74
2022/03/14 02:35:34;;;;;;;15.55;4.15;;;9.40;78.70;;;;;;5035072;28;20071;-74
2022/03/14 02:38:00;;;;;;;10.27;3.42;;;9.30;78.60;;;;;;5037203;28;20029;-74
2022/03/14 02:40:26;;;;;;;14.88;3.95;;;9.30;79.20;;;;;;5036974;28;20033;-74
2022/03/14 02:42:52;;;;;;;13.45;4.18;;;9.30;79.10;;;;;;5037164;28;20079;-74
2022/03/14 02:45:17;;;;;;;12.55;4.10;;;9.30;79.00;;;;;;5034441;28;20069;-74
2022/03/14 02:47:43;;;;;;;11.05;3.95;;;9.30;78.90;;;;;;5036901;28;20030;-74
2022/03/14 02:50:09;;;;;;;15.07;4.50;;;9.30;79.10;;;;;;5035338;28;20022;-74
2022/03/14 02:52:35;;;;;;;12.20;4.13;;;9.30;79.00;;;;;;5035147;28;20084;-74
2022/03/14 02:55:01;;;;;;;8.45;3.75;;;9.30;78.70;;;;;;5035444;28;20033;-74
2022/03/14 02:57:28;;;;;;;11.48;4.03;;;9.40;78.50;;;;;;5035154;28;20029;-74
2022/03/14 02:59:56;;;;;;;14.25;3.83;;;9.40;78.40;;;;;;5035494;28;20042;-74
2022/03/14 03:02:24;;;;;;;12.80;3.15;;;9.40;78.30;;;;;;5035372;28;20032;-74
2022/03/14 03:04:50;;;;;;;7.97;3.33;;;9.30;78.80;;;;;;5036032;28;20033;-73
2022/03/14 03:07:19;;;;;;;16.17;3.65;;;9.40;78.80;;;;;;5036032;28;20028;-73
2022/03/14 03:09:45;;;;;;;9.98;3.85;;;9.30;79.10;;;;;;5034689;28;20103;-73
2022/03/14 03:12:14;;;;;;;15.80;3.75;;;9.30;78.60;;;;;;5036545;28;20022;-74
2022/03/14 03:14:41;;;;;;;8.55;3.70;;;9.30;78.50;;;;;;5035948;28;20489;-74
2022/03/14 03:17:06;;;;;;;9.95;4.25;;;9.30;78.40;;;;;;5036416;28;20049;-74
2022/03/14 03:19:33;;;;;;;16.58;3.92;;;9.30;78.50;;;;;;5036321;28;20030;-74
2022/03/14 03:21:58;;;;;;;12.48;4.10;;;9.30;78.70;;;;;;5035787;28;20037;-74
2022/03/14 03:24:24;;;;;;;8.18;4.15;;;9.30;78.80;;;;;;5036231;28;20032;-74
2022/03/14 03:26:50;;;;;;;11.98;4.43;;;9.20;79.00;;;;;;5035564;28;20037;-74
2022/03/14 03:29:15;;;;;;;9.82;4.35;;;9.20;79.20;;;;;;5035643;28;20017;-74
2022/03/14 03:31:41;;;;;;;7.63;3.63;;;9.20;79.60;;;;;;5035471;28;20040;-74
2022/03/14 03:34:07;;;;;;;10.43;3.45;;;9.20;79.50;;;;;;5034575;28;20045;-74
2022/03/14 03:36:33;;;;;;;12.75;3.55;;;9.20;79.60;;;;;;5034824;28;20033;-74
2022/03/14 03:38:58;;;;;;;10.05;4.05;;;9.20;79.60;;;;;;5034218;28;20454;-74
2022/03/14 03:41:25;;;;;;;12.07;4.15;;;9.20;79.30;;;;;;5033262;28;20497;-74
2022/03/14 03:43:50;;;;;;;14.20;4.20;;;9.20;79.20;;;;;;5036093;28;20107;-74
2022/03/14 03:46:16;;;;;;;14.73;3.95;;;9.20;79.40;;;;;;5034453;28;20029;-74
2022/03/14 03:48:42;;;;;;;20.05;4.15;;;9.20;79.50;;;;;;5032732;28;20409;-74
2022/03/14 03:51:07;;;;;;;14.55;4.82;;;9.10;79.90;;;;;;5035784;28;20017;-74
2022/03/14 03:53:33;;;;;;;9.23;4.20;;;9.00;80.50;;;;;;5033378;28;20033;-74
2022/03/14 03:55:58;;;;;;;14.73;3.95;;;9.00;80.80;;;;;;5035751;28;20037;-74
2022/03/14 03:58:24;;;;;;;14.93;4.35;;;8.90;81.10;;;;;;5035759;28;20631;-74
2022/03/14 04:00:51;;;;;;;12.10;4.82;;;8.90;81.40;;;;;;5035115;28;20060;-73
2022/03/14 04:03:19;;;;;;;18.05;5.30;;;8.80;81.60;;;;;;5035713;28;20025;-74
2022/03/14 04:05:45;;;;;;;13.40;4.75;;;8.80;81.80;;;;;;5035357;28;20053;-73
2022/03/14 04:08:11;;;;;;;12.35;4.43;;;8.80;81.70;;;;;;5034949;28;20433;-74
2022/03/14 04:10:41;;;;;;;20.85;4.65;;;8.80;81.80;;;;;;5033341;28;20029;-74
2022/03/14 04:13:07;;;;;;;16.67;4.88;;;8.80;81.90;;;;;;5034177;28;20017;-74
2022/03/14 04:15:49;;;;;;;8.75;3.72;;;8.80;82.00;;;;;;5033280;28;20038;-74
2022/03/14 04:18:18;;;;;;;18.25;4.10;;;8.80;81.90;;;;;;5034861;28;20496;-74
2022/03/14 04:20:46;;;;;;;16.70;4.97;;;8.80;81.90;;;;;;5033990;28;20033;-73
2022/03/14 04:23:12;;;;;;;18.45;4.70;;;8.70;82.00;;;;;;5034214;28;20033;-74
2022/03/14 04:25:38;;;;;;;16.15;4.32;;;8.70;82.30;;;;;;5033372;28;20036;-74
2022/03/14 04:28:04;;;;;;;9.40;3.47;;;8.60;82.40;;;;;;5034467;28;20024;-74
2022/03/14 04:30:30;;;;;;;10.48;3.67;;;8.70;82.60;;;;;;5035257;28;20021;-74
2022/03/14 04:32:56;;;;;;;13.90;3.78;;;8.70;82.20;;;;;;5035167;28;20029;-74
2022/03/14 04:35:22;;;;;;;8.32;3.85;;;8.70;82.40;;;;;;5032444;28;20058;-74
2022/03/14 04:37:47;;;;;;;10.77;3.63;;;8.70;82.10;;;;;;5033744;28;20132;-74
2022/03/14 04:40:14;;;;;;;12.60;3.80;;;8.70;82.30;;;;;;5032699;28;20053;-74
2022/03/14 04:42:40;;;;;;;10.50;3.78;;;8.70;82.50;;;;;;5034520;28;20113;-74
2022/03/14 04:45:06;;;;;;;18.98;5.13;;;8.70;82.40;;;;;;5034788;28;20025;-74
2022/03/14 04:47:32;;;;;;;14.75;4.40;;;8.70;82.30;;;;;;5034810;28;20469;-74
2022/03/14 04:49:58;;;;;;;9.85;4.18;;;8.70;82.30;;;;;;5035057;28;20026;-74
2022/03/14 04:52:24;;;;;;;15.93;3.78;;;8.70;82.20;;;;;;5038357;28;20051;-74
2022/03/14 04:54:50;;;;;;;8.15;3.20;;;8.70;82.40;;;;;;5038882;28;20029;-74
2022/03/14 04:57:16;;;;;;;16.15;4.68;;;8.70;82.40;;;;;;5038534;28;20022;-73
2022/03/14 04:59:41;;;;;;;15.98;5.13;;;8.70;82.40;;;;;;5037577;28;20036;-74
2022/03/14 05:02:07;;;;;;;14.13;4.95;;;8.70;82.40;;;;;;5038944;28;20077;-74
2022/03/14 05:04:34;;;;;;;13.23;4.75;;;8.70;82.60;;;;;;5037939;28;20048;-74
2022/03/14 05:07:00;;;;;;;11.63;3.45;;;8.60;82.70;;;;;;5038977;28;20420;-73
2022/03/14 05:09:25;;;;;;;12.73;4.32;;;8.60;82.80;;;;;;5038287;28;20033;-74
2022/03/14 05:11:51;;;;;;;17.98;5.55;;;8.60;82.70;;;;;;5037433;28;20396;-74
2022/03/14 05:14:17;;;;;;;13.90;4.82;;;8.50;82.80;;;;;;5038780;28;20035;-74
2022/03/14 05:16:43;;;;;;;9.23;3.85;;;8.60;82.90;;;;;;5038013;28;20022;-74
2022/03/14 05:19:09;;;;;;;12.93;4.00;;;8.50;82.80;;;;;;5037219;28;20128;-73
2022/03/14 05:21:34;;;;;;;15.52;4.80;;;8.50;82.90;;;;;;5037885;28;20060;-74
2022/03/14 05:24:00;;;;;;;10.18;4.13;;;8.40;83.00;;;;;;5036987;28;20500;-73
2022/03/14 05:26:26;;;;;;;18.23;4.55;;;8.40;83.20;;;;;;5031021;28;20025;-74
2022/03/14 05:28:52;;;;;;;17.20;4.20;;;8.30;83.20;;;;;;5037957;28;20036;-74
2022/03/14 05:31:20;;;;;;;16.20;4.50;;;8.30;83.40;;;;;;5037015;28;20021;-74
2022/03/14 05:33:46;;;;;;;15.32;4.38;;;8.30;83.00;;;;;;5036888;28;20053;-74
2022/03/14 05:36:11;;;;;;;16.02;4.63;;;8.30;83.10;;;;;;5036309;28;20570;-73
2022/03/14 05:38:37;;;;;;;19.65;4.05;;;8.30;83.00;;;;;;5036955;28;20409;-74
2022/03/14 05:41:03;;;;;;;15.75;4.60;;;8.30;83.20;;;;;;5037505;28;20042;-74
2022/03/14 05:43:36;;;;;;;10.52;4.18;;;8.40;82.90;;;;;;5037683;28;20034;-74
2022/03/14 05:46:03;;;;;;;18.98;4.97;;;8.20;83.20;;;;;;5027961;28;20032;-75
2022/03/14 05:48:30;;;;;;;9.70;4.15;;;8.20;83.50;;;;;;5036505;28;20105;-75
2022/03/14 05:50:55;;;;;;;12.10;4.85;;;8.20;83.30;;;;;;5036987;28;20076;-76
2022/03/14 05:57:11;;;;;;;19.88;5.82;;;8.10;83.50;;;;;;5061897;28;20399;-76
2022/03/14 05:59:37;;;;;;;13.77;5.60;;;7.90;84.00;;;;;;5059130;28;20512;-77
2022/03/14 06:02:03;;;;;;;13.10;5.70;;;7.90;84.10;;;;;;5071872;28;20032;-77
2022/03/14 06:04:29;;;;;;;12.02;4.47;;;7.80;84.20;;;;;;5067670;28;20017;-77
2022/03/14 06:06:55;;;;;;;14.90;4.88;;;7.90;84.20;;;;;;5070605;28;20055;-78
2022/03/14 06:09:21;;;;;;;16.35;4.95;;;7.90;84.30;;;;;;5067693;28;20047;-75
2022/03/14 06:11:47;;;;;;;10.77;4.90;;;7.90;84.10;;;;;;5070443;28;20457;-74
2022/03/14 06:14:12;;;;;;;16.85;5.57;;;7.90;84.30;;;;;;5070297;28;20028;-74
2022/03/14 06:16:38;;;;;;;12.10;5.43;;;8.00;83.90;;;;;;5061504;28;20585;-75
2022/03/14 06:19:04;;;;;;;11.80;5.43;;;8.00;83.60;;;;;;5065369;28;20021;-74
2022/03/14 06:21:31;;;;;;;15.40;5.00;;;8.10;83.40;;;;;;5071921;28;20029;-76
2022/03/14 06:23:57;;;;;;;13.88;4.85;;;8.00;83.40;;;;;;5071893;28;20561;-73
2022/03/14 06:26:22;;;;;;;19.00;6.13;;;8.10;83.60;;;;;;5053748;28;20029;-76
2022/03/14 06:28:48;;;;;;;15.93;4.60;;;8.00;83.30;;;;;;5071924;28;20037;-76
2022/03/14 06:31:16;;;;;;;13.88;4.60;;;8.00;83.30;;;;;;5069166;28;20051;-77
2022/03/14 06:33:41;;;;;;;11.82;5.43;;;8.10;83.30;;;;;;5069421;28;20800;-73
2022/03/14 06:36:07;;;;;;;17.20;5.65;;;8.00;83.30;;;;;;5066714;28;20081;-74
2022/03/14 06:38:35;;;;;;;18.10;5.03;;;8.00;83.30;;;;;;5061613;28;20033;-73
2022/03/14 06:41:01;;;;;;;11.13;4.47;;;8.00;83.30;;;;;;5070379;28;20029;-73
2022/03/14 06:43:28;;;;;;;12.07;4.88;;;8.10;83.10;;;;;;5068161;28;20021;-71
2022/03/14 06:45:54;;;;;;;13.52;5.00;;;8.10;83.00;;;;;;5068602;28;20037;-71
2022/03/14 06:48:21;;;;;;;11.27;5.70;;;8.20;82.60;;;;;;5070560;28;20033;-73
2022/03/14 06:50:46;;;;;;;17.85;5.30;;;8.10;82.60;;;;;;5071066;28;20075;-71
2022/03/14 06:53:12;;;;;;;12.52;4.13;;;8.20;82.50;;;;;;5053418;28;20021;-71
2022/03/14 06:55:38;;;;;;;15.70;4.55;;;8.10;82.50;;;;;;5049106;28;20084;-71
2022/03/14 06:58:04;;;;;;;8.88;4.10;;;8.10;82.30;;;;;;5060335;28;20045;-74
2022/03/14 07:00:30;;;;;;;10.52;3.60;;;8.10;82.50;;;;;;5069631;28;20408;-74
2022/03/14 07:02:55;;;;;;;14.13;4.47;;;8.20;81.90;;;;;;5070974;28;20021;-72
2022/03/14 07:05:24;;;;;;;12.05;4.80;;;8.20;81.90;;;;;;5059218;28;20037;-74
2022/03/14 07:07:51;;;;;;;16.48;4.90;;;8.20;81.80;;;;;;5041865;28;20017;-74
2022/03/14 07:10:17;;;;;;;10.50;4.45;;;8.20;81.60;;;;;;5036118;28;20036;-75
2022/03/14 07:12:46;;;;;;;14.85;3.92;;;8.20;81.60;;;;;;5053608;28;20696;-74
2022/03/14 07:15:21;;;;;;;10.63;4.17;;;8.10;81.60;;;;;;5037218;28;20255;-74
2022/03/14 07:17:47;;;;;;;18.88;4.35;;;8.20;81.60;;;;;;5036154;28;20035;-74
2022/03/14 07:20:13;;;;;;;11.68;4.10;;;8.20;81.60;;;;;;5037326;28;20555;-74
2022/03/14 07:22:53;;;;;;;9.90;4.53;;;8.20;81.40;;;;;;5037509;28;20032;-75
2022/03/14 07:25:23;;;;;;;8.85;4.03;;;8.20;81.10;;;;;;5037431;28;20026;-72
2022/03/14 07:27:49;;;;;;;12.63;4.05;;;8.20;81.10;;;;;;5037513;28;20072;-72
2022/03/14 07:30:15;;;;;;;10.50;4.30;;;8.20;80.90;;;;;;5037512;28;20044;-72
2022/03/14 07:32:41;;;;;;;9.38;3.80;;;8.30;80.80;;;;;;5041435;28;20111;-71
2022/03/14 07:35:07;;;;;;;9.43;3.90;;;8.40;80.40;;;;;;5056553;28;20029;-72
2022/03/14 07:37:33;;;;;;;8.77;3.67;;;8.40;80.10;;;;;;5055256;28;20032;-72
2022/03/14 07:39:58;;;;;;;15.48;4.50;;;8.50;80.10;;;;;;5055780;28;20109;-72
2022/03/14 07:42:24;;;;;;;10.45;3.53;;;8.60;79.80;;;;;;5057053;28;20028;-72
2022/03/14 07:44:50;;;;;;;15.85;4.75;;;8.60;79.50;;;;;;5056837;28;20120;-72
2022/03/14 07:47:16;;;;;;;8.73;3.67;;;8.70;79.30;;;;;;5045318;28;20059;-72
2022/03/14 07:49:41;;;;;;;8.38;4.45;;;8.70;79.20;;;;;;5056570;28;20492;-72
2022/03/14 07:52:08;;;;;;;11.45;4.90;;;8.70;78.50;;;;;;5056660;28;20060;-72
2022/03/14 07:54:33;;;;;;;25.55;4.57;;;8.80;78.60;;;;;;5055059;28;20021;-72
2022/03/14 07:56:59;;;;;;;9.27;4.00;;;8.80;78.10;;;;;;5054743;28;20056;-72
2022/03/14 07:59:24;;;;;;;9.18;3.67;;;9.00;77.80;;;;;;5054997;28;20026;-72
2022/03/14 08:01:50;;;;;;;7.10;3.65;;;8.90;77.50;;;;;;5054711;28;20064;-72
2022/03/14 08:04:16;;;;;;;11.32;3.60;;;9.00;77.30;;;;;;5056780;28;20051;-72
2022/03/14 08:06:42;;;;;;;16.60;4.68;;;9.10;77.40;;;;;;5055087;28;20037;-74
2022/03/14 08:09:11;;;;;;;8.93;3.80;;;9.20;76.60;;;;;;5046641;28;20024;-75
2022/03/14 08:11:38;;;;;;;9.88;4.43;;;9.30;75.90;;;;;;5045790;28;20143;-72
2022/03/14 08:14:07;;;;;;;12.60;4.57;;;9.60;75.50;;;;;;5055939;28;20100;-72
2022/03/14 08:16:33;;;;;;;9.68;4.05;;;10.30;74.30;;;;;;5036352;28;20030;-72
2022/03/14 08:18:59;;;;;;;8.02;3.97;;;11.10;70.20;;;;;;5043397;28;20024;-72
2022/03/14 08:21:24;;;;;;;12.30;3.80;;;11.90;66.80;;;;;;5056484;28;20021;-73
2022/03/14 08:23:50;;;;;;;6.68;3.15;;;12.10;65.80;;;;;;5053843;28;20072;-72
2022/03/14 08:26:17;;;;;;;7.63;3.50;;;12.20;65.00;;;;;;5055512;28;20025;-72
2022/03/14 08:28:44;;;;;;;7.28;4.10;;;12.20;66.10;;;;;;5055284;28;20043;-73
2022/03/14 08:31:14;;;;;;;7.88;3.03;;;13.20;63.20;;;;;;5041204;28;20403;-72
2022/03/14 08:33:41;;;;;;;5.90;3.28;;;13.80;60.70;;;;;;5050140;28;20033;-73
2022/03/14 08:36:08;;;;;;;5.43;3.05;;;15.10;57.60;;;;;;5055295;28;20037;-73
2022/03/14 08:38:33;;;;;;;6.43;3.00;;;16.30;52.80;;;;;;5046119;28;20121;-73
2022/03/14 08:40:59;;;;;;;11.18;3.63;;;16.70;50.40;;;;;;5034724;28;20026;-73
2022/03/14 08:43:25;;;;;;;6.72;3.03;;;17.20;49.90;;;;;;5046353;28;20025;-73
2022/03/14 08:45:53;;;;;;;6.93;2.50;;;17.10;49.40;;;;;;5055341;28;20556;-73
2022/03/14 08:48:19;;;;;;;6.75;2.90;;;17.60;48.60;;;;;;5055550;28;20035;-73
2022/03/14 08:50:44;;;;;;;4.57;2.70;;;18.00;46.20;;;;;;5055889;28;20504;-73
2022/03/14 08:53:11;;;;;;;6.82;3.20;;;18.30;45.30;;;;;;5040646;28;20029;-73
2022/03/14 08:55:37;;;;;;;8.65;3.05;;;19.00;45.00;;;;;;5035176;28;20444;-73
2022/03/14 08:58:03;;;;;;;11.95;4.25;;;19.60;42.30;;;;;;5034245;28;20029;-73
2022/03/14 09:00:29;;;;;;;8.52;3.22;;;19.80;41.90;;;;;;5039848;28;20583;-73
2022/03/14 09:02:56;;;;;;;9.43;3.75;;;20.10;41.20;;;;;;5035222;28;20029;-73
2022/03/14 09:05:22;;;;;;;10.10;3.00;;;20.80;40.40;;;;;;5035156;28;20029;-73
2022/03/14 09:07:47;;;;;;;8.63;2.78;;;20.80;39.00;;;;;;5043150;28;20055;-73
2022/03/14 09:10:15;;;;;;;7.57;3.35;;;20.90;38.70;;;;;;5042070;28;20025;-73
2022/03/14 09:12:44;;;;;;;9.52;3.33;;;20.70;38.70;;;;;;5048285;28;20057;-73
2022/03/14 09:15:11;;;;;;;;;;;20.30;40.00;;;;;;5036971;28;20025;-73
2022/03/14 09:17:49;;;;;;;9.05;3.28;;;20.50;39.70;;;;;;5054889;28;19911;-73
2022/03/14 09:20:16;;;;;;;6.72;2.60;;;20.90;39.60;;;;;;5049340;28;20092;-73
2022/03/14 09:22:45;;;;;;;7.40;3.33;;;21.20;38.80;;;;;;5034908;28;20090;-74
2022/03/14 09:25:15;;;;;;;7.10;2.80;;;21.10;39.10;;;;;;5034829;28;20029;-73
2022/03/14 09:27:43;;;;;;;;;;;20.70;37.80;;;;;;5035460;28;20021;-74
2022/03/14 09:30:11;;;;;;;9.43;2.60;;;21.20;37.40;;;;;;5033456;28;19913;-73
2022/03/14 09:32:37;;;;;;;6.38;2.90;;;21.00;38.20;;;;;;5035305;28;20072;-73
2022/03/14 09:35:04;;;;;;;7.53;2.38;;;21.10;36.80;;;;;;5035047;28;20398;-73
2022/03/14 09:37:30;;;;;;;6.97;2.80;;;20.70;36.50;;;;;;5035001;28;20040;-74
2022/03/14 09:39:56;;;;;;;7.18;2.85;;;21.50;37.30;;;;;;5035139;28;20089;-74
2022/03/14 09:42:24;;;;;;;7.25;2.63;;;21.80;36.10;;;;;;5034458;28;20353;-73
2022/03/14 09:44:53;;;;;;;5.25;3.03;;;21.80;36.10;;;;;;5053229;28;20545;-73
2022/03/14 09:47:22;;;;;;;4.95;2.78;;;22.30;36.70;;;;;;5054625;28;20021;-73
2022/03/14 09:49:51;;;;;;;4.50;2.22;;;22.30;35.50;;;;;;5041519;28;20121;-73
2022/03/14 09:52:18;;;;;;;7.00;2.87;;;22.20;34.40;;;;;;5033793;28;20021;-73
2022/03/14 09:54:45;;;;;;;5.63;2.13;;;21.80;34.30;;;;;;5034713;28;20453;-73
2022/03/14 09:57:10;;;;;;;6.10;2.55;;;22.00;35.60;;;;;;5034321;28;20049;-73
2022/03/14 09:59:37;;;;;;;7.03;2.63;;;22.00;34.30;;;;;;5053878;28;20036;-73
2022/03/14 10:02:03;;;;;;;3.55;2.25;;;21.40;35.00;;;;;;5054661;28;20036;-73
2022/03/14 10:04:29;;;;;;;6.18;2.30;;;21.40;35.60;;;;;;5045727;28;20029;-73
2022/03/14 10:06:55;;;;;;;7.28;2.55;;;21.30;35.80;;;;;;5033007;28;20034;-73
2022/03/14 10:09:21;;;;;;;9.35;2.40;;;20.80;35.00;;;;;;5034810;28;20025;-73
2022/03/14 10:11:46;;;;;;;6.35;2.33;;;20.30;37.30;;;;;;5034272;28;20492;-73
2022/03/14 10:14:16;;;;;;;6.18;2.47;;;20.70;37.10;;;;;;5034663;28;20489;-73
2022/03/14 10:16:44;;;;;;;5.63;2.80;;;20.10;36.70;;;;;;5032700;28;20061;-73
2022/03/14 10:19:10;;;;;;;9.43;2.65;;;19.80;37.30;;;;;;5054795;28;20021;-74
2022/03/14 10:21:42;;;;;;;6.20;2.20;;;19.40;39.30;;;;;;5053252;28;20055;-74
2022/03/14 10:24:13;;;;;;;5.55;1.85;;;19.00;40.40;;;;;;5054633;28;20021;-73
2022/03/14 10:26:43;;;;;;;7.97;2.05;;;18.20;41.50;;;;;;5035800;28;20040;-73
2022/03/14 10:29:12;;;;;;;6.38;2.10;;;17.50;40.60;;;;;;5034483;28;20032;-73
2022/03/14 10:31:47;;;;;;;6.20;2.22;;;17.00;42.60;;;;;;5034505;28;20485;-73
2022/03/14 10:34:16;;;;;;;6.28;2.00;;;16.90;43.30;;;;;;5034271;28;20053;-73
2022/03/14 10:36:45;;;;;;;7.50;2.25;;;16.50;44.20;;;;;;5052865;28;20029;-73
2022/03/14 10:39:19;;;;;;;5.95;2.10;;;16.20;44.40;;;;;;5054566;28;20025;-73
2022/03/14 10:42:04;;;;;;;7.07;2.10;;;16.00;44.20;;;;;;5054248;28;20040;-73
2022/03/14 10:44:31;;;;;;;5.82;2.00;;;15.90;46.10;;;;;;5047918;28;20057;-73
2022/03/14 10:47:01;;;;;;;5.93;2.25;;;16.00;45.40;;;;;;5040316;28;20048;-73
2022/03/14 10:49:30;;;;;;;;;;;15.80;45.10;;;;;;5058714;28;20017;-73
2022/03/14 10:52:01;;;;;;;5.90;2.03;;;15.80;44.40;;;;;;5048872;28;19904;-73
2022/03/14 10:54:27;;;;;;;4.90;1.98;;;15.80;45.00;;;;;;5036382;28;20038;-73
2022/03/14 10:57:22;;;;;;;6.00;1.80;;;15.60;43.60;;;;;;5037479;28;20824;-73
2022/03/14 10:59:49;;;;;;;4.65;1.70;;;15.30;43.90;;;;;;5038148;28;20037;-73
2022/03/14 11:02:20;;;;;;;6.55;2.05;;;15.40;46.10;;;;;;5036228;28;20039;-73
2022/03/14 11:04:57;;;;;;;5.70;1.95;;;15.50;45.50;;;;;;5037616;28;20036;-73
2022/03/14 11:07:33;;;;;;;5.03;1.63;;;15.40;45.40;;;;;;5037599;28;20029;-73
2022/03/14 11:10:02;;;;;;;6.70;2.10;;;15.50;44.80;;;;;;5036150;28;20527;-73
2022/03/14 11:12:29;;;;;;;6.50;1.40;;;15.70;44.80;;;;;;5042802;28;20037;-73
2022/03/14 11:15:15;;;;;;;4.88;1.60;;;15.50;43.00;;;;;;5057046;28;20013;-73
2022/03/14 11:17:42;;;;;;;5.15;1.65;;;15.30;44.30;;;;;;5054270;28;20029;-73
2022/03/14 11:20:08;;;;;;;6.05;1.50;;;15.30;43.60;;;;;;5057050;28;20051;-73
2022/03/14 11:22:35;;;;;;;5.90;1.83;;;15.30;44.00;;;;;;5054227;28;20067;-73
2022/03/14 11:25:01;;;;;;;4.53;1.65;;;15.30;45.60;;;;;;5055872;28;20020;-73
2022/03/14 11:27:37;;;;;;;7.28;1.67;;;15.40;44.70;;;;;;5055848;28;20595;-73
2022/03/14 11:30:11;;;;;;;6.88;2.08;;;15.40;44.40;;;;;;5052505;28;20416;-73
2022/03/14 11:32:38;;;;;;;6.65;1.70;;;15.50;43.40;;;;;;5037298;28;20493;-73
2022/03/14 11:35:05;;;;;;;4.88;1.85;;;15.50;44.20;;;;;;5042065;28;20037;-73
2022/03/14 11:37:32;;;;;;;3.17;1.30;;;15.40;44.90;;;;;;5056876;28;20017;-73
2022/03/14 11:39:59;;;;;;;4.07;1.38;;;15.40;42.00;;;;;;5057201;28;20116;-73
2022/03/14 11:42:25;;;;;;;3.40;1.50;;;15.40;42.00;;;;;;5041307;28;20501;-73
2022/03/14 11:44:53;;;;;;;3.45;1.40;;;15.30;42.80;;;;;;5036338;28;20060;-73
2022/03/14 11:47:20;;;;;;;3.08;1.30;;;15.50;43.50;;;;;;5042007;28;20025;-73
2022/03/14 11:49:47;;;;;;;5.47;1.88;;;15.60;43.10;;;;;;5055491;28;20029;-73
2022/03/14 11:52:19;;;;;;;3.40;1.40;;;15.60;43.60;;;;;;5036833;28;20017;-73
2022/03/14 11:54:51;;;;;;;3.80;1.38;;;15.60;40.90;;;;;;5035220;28;20083;-75
2022/03/14 11:57:42;;;;;;;8.05;1.40;;;15.50;40.80;;;;;;5036893;28;20025;-73
2022/03/14 12:00:27;;;;;;;8.25;2.08;;;15.70;42.40;;;;;;5047874;28;20041;-74
2022/03/14 12:03:07;;;;;;;8.30;1.42;;;16.00;43.00;;;;;;5055210;28;20025;-74
2022/03/14 12:05:32;;;;;;;5.40;1.80;;;15.90;41.60;;;;;;5054704;28;20571;-75
2022/03/14 12:08:13;;;;;;;5.22;1.60;;;15.80;40.60;;;;;;5056457;28;20048;-75
2022/03/14 12:10:39;;;;;;;5.38;2.05;;;15.70;41.30;;;;;;5037587;28;20033;-75
2022/03/14 12:13:04;;;;;;;7.07;1.55;;;15.80;41.60;;;;;;5056532;28;20078;-74
2022/03/14 12:15:37;;;;;;;4.18;1.60;;;15.90;42.50;;;;;;5036951;28;20448;-75
2022/03/14 12:18:23;;;;;;;3.22;1.27;;;15.80;42.30;;;;;;5036462;28;20029;-74
2022/03/14 12:20:53;;;;;;;5.22;1.95;;;15.70;40.90;;;;;;5031136;28;20038;-75
2022/03/14 12:23:29;;;;;;;3.65;1.30;;;15.60;40.50;;;;;;5034389;28;20053;-72
2022/03/14 12:25:58;;;;;;;5.10;1.52;;;15.60;40.20;;;;;;5038046;28;20055;-73
2022/03/14 12:28:26;;;;;;;5.97;1.30;;;15.70;40.40;;;;;;5053315;28;20059;-74
2022/03/14 12:30:59;;;;;;;1.98;0.82;;;15.60;39.70;;;;;;5055539;28;20096;-73
2022/03/14 12:33:39;;;;;;;6.28;1.52;;;15.70;41.30;;;;;;5055869;28;20522;-73
2022/03/14 12:36:22;;;;;;;;;;;15.50;40.30;;;;;;5054979;28;20523;-73
2022/03/14 12:39:09;;;;;;;1.83;1.20;;;15.50;40.00;;;;;;5041428;28;19921;-73
2022/03/14 12:41:40;;;;;;;4.43;1.17;;;15.40;38.60;;;;;;5034544;28;20037;-73
2022/03/14 12:44:20;;;;;;;5.68;1.20;;;15.50;39.50;;;;;;5035033;28;20029;-73
2022/03/14 12:46:47;;;;;;;3.35;1.27;;;15.60;40.70;;;;;;5035263;28;20033;-73
2022/03/14 12:49:26;;;;;;;5.15;1.48;;;15.70;40.50;;;;;;5050725;28;20055;-73
2022/03/14 12:52:22;;;;;;;4.50;1.90;;;15.70;41.10;;;;;;5046015;28;20018;-73
2022/03/14 12:54:48;;;;;;;4.78;1.50;;;15.90;40.50;;;;;;5030838;28;20041;-73